Погода Ла-Мирадана неделю

Калифорния, США

01 - 07 сентября
  • 01сентября
    Сегодня
    +18°
    +29°
    Ясно и безоблачно
    ВремяПогодаТемператураВлажностьДавлениеВетер, м/сВероятность осадков
    02:00Ясно и безоблачно+19°C77 %756 мм0.4 м/с2 %
    05:00Ясно и безоблачно+20°C81 %755 мм0.1 м/с2 %
    08:00Ясно и безоблачно+20°C75 %756 мм0.3 м/с2 %
    11:00Ясно и безоблачно+25°C51 %756 мм1.6 м/с2 %
    14:00Ясно и безоблачно+28°C42 %756 мм3.5 м/с2 %
    17:00Ясно и безоблачно+27°C44 %755 мм3.8 м/с2 %
    20:00Ясно и безоблачно+22°C58 %755 мм2.4 м/с2 %
    23:00Ясно и безоблачно+20°C70 %756 мм0.9 м/с2 %
  • 02сентября
    Среда
    +19°
    +29°
    Ясно и безоблачно
    ВремяПогодаТемператураВлажностьДавлениеВетер, м/сВероятность осадков
    02:00Ясно и безоблачно+19°C73 %757 мм0.4 м/с2 %
    05:00Ясно и безоблачно+19°C76 %756 мм0.4 м/с2 %
    08:00Ясно и безоблачно+20°C71 %757 мм0.5 м/с2 %
    11:00Ясно и безоблачно+25°C51 %757 мм1.7 м/с2 %
    14:00Ясно и безоблачно+28°C42 %756 мм3.5 м/с2 %
    17:00Ясно и безоблачно+27°C43 %755 мм3.9 м/с2 %
    20:00Ясно и безоблачно+23°C54 %755 мм2.3 м/с2 %
    23:00Ясно и безоблачно+21°C67 %756 мм0.8 м/с2 %
  • 03сентября
    Четверг
    +18°
    +28°
    Ясно и безоблачно
    ВремяПогодаТемператураВлажностьДавлениеВетер, м/сВероятность осадков
    02:00Ясно и безоблачно+20°C73 %755 мм0.9 м/с2 %
    05:00Ясно и безоблачно+19°C80 %755 мм1.0 м/с2 %
    08:00Небольшая облачность+21°C72 %756 мм1.3 м/с2 %
    11:00Ясно и безоблачно+25°C53 %755 мм2.1 м/с2 %
    14:00Ясно и безоблачно+27°C48 %754 мм3.8 м/с2 %
    17:00Ясно и безоблачно+26°C52 %753 мм3.8 м/с2 %
    20:00Ясно и безоблачно+23°C63 %753 мм2.5 м/с2 %
    23:00Ясно и безоблачно+21°C73 %754 мм0.9 м/с2 %
  • 04сентября
    Пятница
    +19°
    +29°
    Ясно и безоблачно
    ВремяПогодаТемператураВлажностьДавлениеВетер, м/сВероятность осадков
    02:00Ясно и безоблачно+20°C77 %754 мм1.1 м/с2 %
    05:00Ясно и безоблачно+19°C82 %754 мм0.8 м/с2 %
    08:00Ясно и безоблачно+20°C74 %755 мм0.7 м/с2 %
    11:00Ясно и безоблачно+26°C51 %755 мм1.6 м/с2 %
    14:00Ясно и безоблачно+28°C43 %754 мм3.4 м/с2 %
    17:00Ясно и безоблачно+27°C44 %753 мм3.3 м/с2 %
    20:00Ясно и безоблачно+23°C66 %754 мм2.3 м/с2 %
    23:00Ясно и безоблачно+21°C77 %755 мм0.8 м/с2 %
  • 05сентября
    Суббота
    +21°
    +31°
    Ясно и безоблачно
    ВремяПогодаТемператураВлажностьДавлениеВетер, м/сВероятность осадков
    02:00Ясно и безоблачно+20°C78 %755 мм0.2 м/с3 %
    05:00Ясно и безоблачно+19°C82 %754 мм0.0 м/с6 %
    08:00Ясно и безоблачно+21°C74 %755 мм0.0 м/с13 %
    11:00Ясно и безоблачно+28°C44 %755 мм1.4 м/с15 %
    14:00Ясно и безоблачно+31°C34 %754 мм3.4 м/с18 %
    17:00Ясно и безоблачно+29°C37 %753 мм3.7 м/с21 %
    20:00Ясно и безоблачно+25°C57 %754 мм2.2 м/с18 %
    23:00Практически безоблачно+24°C68 %755 мм0.7 м/с20 %
  • 06сентября
    Воскресенье
    +19°
    +32°
    Ясно и безоблачно
    ВремяПогодаТемператураВлажностьДавлениеВетер, м/сВероятность осадков
    05:00Ясно и безоблачно+22°C75 %754 мм0.2 м/с28 %
    11:00Ясно и безоблачно+29°C53 %755 мм0.8 м/с32 %
    17:00Ясно и безоблачно+31°C55 %753 мм2.4 м/с31 %
    23:00Ясно и безоблачно+23°C64 %754 мм1.7 м/с24 %
  • 07сентября
    Понедельник
    +17°
    +31°
    Ясно и безоблачно
    ВремяПогодаТемператураВлажностьДавлениеВетер, м/сВероятность осадков
    05:00Ясно и безоблачно+19°C80 %754 мм1.4 м/с16 %
    11:00Ясно и безоблачно+27°C43 %755 мм2.4 м/с23 %
    17:00Ясно и безоблачно+28°C35 %753 мм4.3 м/с18 %
    23:00Ясно и безоблачно+21°C73 %754 мм1.8 м/с16 %
Мы используем cookies
Соглашаюсь